createdAt,value
2017-09-06T08:56:10.029Z,26.45
2017-09-06T08:58:37.635Z,26.25
2017-09-06T09:01:05.239Z,26.12
2017-09-06T09:03:32.760Z,25.92
2017-09-06T09:06:00.364Z,25.89
2017-09-06T09:08:27.941Z,25.73
2017-09-06T09:10:55.485Z,25.60
2017-09-06T09:13:23.056Z,25.66
2017-09-06T09:15:50.702Z,25.53
2017-09-06T09:18:18.297Z,25.58
2017-09-06T09:20:45.917Z,25.65
2017-09-06T09:23:13.577Z,25.19
2017-09-06T09:25:41.159Z,25.06
2017-09-06T09:28:08.781Z,25.02
2017-09-06T09:30:36.324Z,24.81
2017-09-06T09:33:03.896Z,24.46
2017-09-06T09:35:31.514Z,24.26
2017-09-06T09:37:59.112Z,23.89
2017-09-06T09:40:26.712Z,23.93
2017-09-06T09:42:54.410Z,23.79
2017-09-06T09:45:22.033Z,23.50
2017-09-06T09:47:49.690Z,23.28
2017-09-06T09:50:17.359Z,23.38
2017-09-06T09:52:44.946Z,23.48
2017-09-06T10:56:00.880Z,26.94
2017-09-06T10:58:28.453Z,26.84
2017-09-06T11:00:56.046Z,26.88
2017-09-06T11:03:23.626Z,26.68
2017-09-06T11:05:51.160Z,26.25
2017-09-06T11:08:18.692Z,26.07
2017-09-06T11:10:46.290Z,26.22
2017-09-06T11:13:13.961Z,26.11
2017-09-06T11:15:41.504Z,26.09
2017-09-06T11:18:09.131Z,26.12
2017-09-06T11:20:36.729Z,26.17
2017-09-06T11:23:04.321Z,26.11
2017-09-06T11:25:31.905Z,26.31
2017-09-06T11:27:59.493Z,26.31
2017-09-06T11:30:27.078Z,26.39
2017-09-06T11:32:54.747Z,26.10
2017-09-06T11:35:22.347Z,26.40
2017-09-06T11:37:49.921Z,26.48
2017-09-06T11:40:17.526Z,26.27
2017-09-06T11:42:45.083Z,26.49
2017-09-06T11:45:12.696Z,26.62
2017-09-06T12:55:51.596Z,30.47
2017-09-06T12:58:19.202Z,30.43
2017-09-06T13:00:46.836Z,30.10
2017-09-06T13:03:14.451Z,30.04
2017-09-06T13:05:42.057Z,29.63
2017-09-06T13:08:09.858Z,29.60
2017-09-06T13:10:37.722Z,29.38
2017-09-06T13:13:05.374Z,29.11
2017-09-06T13:15:33.024Z,28.95
2017-09-06T13:18:00.669Z,28.90
2017-09-06T13:20:28.249Z,28.90
2017-09-06T13:22:57.400Z,29.04
2017-09-06T13:25:27.844Z,29.06
2017-09-06T13:27:55.448Z,29.01
2017-09-06T13:30:23.063Z,29.10
2017-09-06T13:32:50.746Z,29.12
2017-09-06T13:35:18.415Z,29.12
2017-09-06T13:37:45.950Z,29.19
2017-09-06T13:40:13.628Z,29.09
2017-09-06T13:42:42.938Z,29.13
2017-09-06T13:45:10.500Z,29.18
2017-09-06T13:47:38.112Z,29.31
2017-09-06T13:50:05.649Z,29.49
2017-09-06T13:52:33.205Z,29.53
2017-09-06T14:55:42.336Z,33.09
2017-09-06T14:58:09.971Z,33.03
2017-09-06T15:00:37.536Z,33.21
2017-09-06T15:03:05.166Z,33.07
2017-09-06T15:05:32.713Z,32.97
2017-09-06T15:08:00.330Z,32.77
2017-09-06T15:10:28.045Z,32.54
2017-09-06T15:12:55.621Z,32.14
2017-09-06T15:15:23.224Z,32.06
2017-09-06T15:17:50.938Z,32.00
2017-09-06T15:20:18.521Z,31.96
2017-09-06T15:22:46.129Z,32.08
2017-09-06T15:25:13.820Z,32.12
2017-09-06T15:27:41.454Z,32.14
2017-09-06T15:30:09.024Z,32.07
2017-09-06T15:32:36.696Z,33.43
2017-09-06T15:35:04.282Z,33.37
2017-09-06T15:37:31.868Z,32.70
2017-09-06T15:39:59.731Z,32.85
2017-09-06T15:42:27.271Z,32.56
2017-09-06T15:44:54.878Z,32.43
2017-09-06T15:47:22.454Z,32.48
2017-09-06T15:49:50.043Z,32.20
2017-09-06T15:52:17.641Z,31.92
2017-09-06T16:55:33.231Z,33.38
2017-09-06T16:58:00.804Z,32.98
2017-09-06T17:00:28.405Z,32.20
2017-09-06T17:02:56.150Z,31.90
2017-09-06T17:05:23.722Z,31.90
2017-09-06T17:07:51.253Z,31.79
2017-09-06T17:10:18.901Z,31.92
2017-09-06T17:12:46.476Z,32.05
2017-09-06T18:55:25.178Z,35.27
2017-09-06T18:57:52.734Z,34.92
2017-09-06T19:00:20.262Z,34.66
2017-09-06T19:02:47.881Z,34.47
2017-09-06T19:05:15.420Z,34.20
2017-09-06T19:07:42.995Z,33.89
2017-09-06T19:10:10.591Z,33.54
2017-09-06T19:12:38.122Z,33.49
2017-09-06T19:15:05.647Z,32.82
2017-09-06T19:17:33.236Z,32.71
2017-09-06T19:20:00.759Z,32.48
2017-09-06T19:22:28.317Z,32.21
2017-09-06T19:24:55.948Z,32.13
2017-09-06T20:55:17.822Z,35.88
2017-09-06T20:57:45.383Z,35.55
2017-09-06T21:00:12.916Z,35.16
2017-09-06T21:02:40.527Z,34.83
2017-09-06T21:05:08.068Z,34.59
2017-09-06T21:07:35.742Z,34.37
2017-09-06T21:10:03.344Z,34.27
2017-09-06T21:12:30.885Z,34.20
2017-09-06T21:14:58.530Z,34.17
2017-09-06T21:17:26.175Z,33.97
2017-09-06T21:19:53.744Z,33.97
2017-09-06T21:22:21.275Z,33.98
2017-09-06T21:24:48.834Z,34.09
2017-09-06T21:27:16.402Z,34.41
2017-09-06T21:29:43.974Z,34.92
2017-09-06T21:32:11.641Z,35.55
2017-09-06T21:34:39.234Z,36.02
2017-09-06T21:37:06.823Z,36.49
2017-09-06T21:39:34.450Z,36.90
2017-09-06T21:42:02.039Z,37.28
2017-09-06T21:44:29.638Z,37.74
2017-09-06T21:46:57.288Z,38.21
2017-09-06T21:49:24.812Z,38.50
2017-09-06T21:51:52.344Z,38.93
2017-09-06T22:55:06.510Z,48.92
2017-09-06T22:57:34.086Z,49.03
2017-09-06T23:00:01.660Z,48.83
2017-09-06T23:02:29.293Z,48.44
2017-09-06T23:04:56.997Z,48.12
2017-09-06T23:07:24.567Z,48.09
2017-09-06T23:09:52.227Z,47.99
2017-09-06T23:12:19.817Z,47.70
2017-09-06T23:14:47.438Z,47.56
2017-09-06T23:17:16.572Z,47.70
2017-09-06T23:19:44.173Z,47.34
2017-09-06T23:22:11.750Z,47.20
